Terminal Aerodrome Forecast
Issued by NWS

Home | Current Version | Previous Version | Graphics & Text | Print | Product List | Glossary On
Versions: 1 2 3 4 5 6 7 8 9 10 11 12 13 14 15 16 17 18 19 20 21
648
FTUS43 KTOP 230520
TAFMHK
TAF
KMHK 230520Z 2306/2406 14010KT P6SM -DZ OVC025
     FM230900 15011KT 6SM -DZ OVC012
     FM231600 17018G29KT P6SM OVC025
     FM232000 18020G29KT P6SM BKN035=

USA.gov is the U.S. government's official web portal to all federal, state and local government web resources and services.